Time;durP1;ratioP1;P1;durP2;ratioP2;P2;SDS_P1;SDS_P2;PMS_P1;PMS_P2;Temp;Humidity;BMP_temperature;BMP_pressure;BME280_temperature;BME280_humidity;BME280_pressure;Samples;Min_cycle;Max_cycle;Signal;HPM_P1;HPM_P2
2021/07/16 00:01:33;;;;;;;7.43;6.72;;;15.00;99.90;;;16.02;100.00;97908.38;5166092;28;20202;-69
2021/07/16 00:04:06;;;;;;;8.45;7.57;;;15.00;99.90;;;15.98;100.00;97914.28;5170988;28;20499;-69
2021/07/16 00:06:40;;;;;;;13.45;8.63;;;15.00;99.90;;;15.98;100.00;97909.13;5169402;28;20257;-69
2021/07/16 00:09:13;;;;;;;8.57;7.78;;;15.10;99.90;;;16.00;100.00;97907.47;5170231;28;20235;-69
2021/07/16 00:11:46;;;;;;;10.50;9.07;;;15.10;99.90;;;16.03;100.00;97909.28;5168756;28;20294;-69
2021/07/16 00:14:21;;;;;;;14.10;10.63;;;15.10;99.90;;;16.05;100.00;97899.88;5170100;28;20219;-69
2021/07/16 00:16:55;;;;;;;9.75;8.68;;;15.10;99.90;;;16.05;100.00;97908.50;5170517;28;20209;-69
2021/07/16 00:19:28;;;;;;;12.10;9.90;;;15.10;99.90;;;16.06;100.00;97920.59;5170324;28;20199;-69
2021/07/16 00:22:01;;;;;;;12.98;9.73;;;15.20;99.90;;;16.05;100.00;97915.38;5170828;28;20221;-69
2021/07/16 00:24:34;;;;;;;10.85;9.65;;;15.20;99.90;;;16.07;100.00;97911.16;5165460;28;20218;-69
2021/07/16 00:27:07;;;;;;;9.43;8.45;;;15.10;99.90;;;16.06;100.00;97912.84;5157219;28;20218;-69
2021/07/16 00:29:42;;;;;;;10.05;8.93;;;15.10;99.90;;;16.10;100.00;97909.56;5170446;28;20199;-69
2021/07/16 00:32:15;;;;;;;8.98;8.18;;;15.20;99.90;;;16.15;100.00;97917.47;5170780;28;20684;-69
2021/07/16 00:34:48;;;;;;;8.65;7.70;;;15.20;99.90;;;16.15;100.00;97908.03;5170545;28;20258;-69
2021/07/16 00:37:24;;;;;;;8.27;7.20;;;15.20;99.90;;;16.18;100.00;97912.41;5165927;28;20217;-69
2021/07/16 00:39:57;;;;;;;8.45;7.65;;;15.30;99.90;;;16.23;100.00;97910.88;5170731;28;20207;-69
2021/07/16 00:42:30;;;;;;;8.57;7.75;;;15.30;99.90;;;16.21;100.00;97923.72;5160029;28;20202;-69
2021/07/16 00:45:07;;;;;;;7.55;6.88;;;15.30;99.90;;;16.21;100.00;97918.56;5167316;28;20245;-69
2021/07/16 00:47:41;;;;;;;6.45;5.85;;;15.30;99.90;;;16.23;100.00;97930.66;5167224;28;20671;-69
2021/07/16 00:50:19;;;;;;;6.60;6.07;;;15.30;99.90;;;16.24;100.00;97916.91;5166681;28;20195;-69
2021/07/16 00:52:52;;;;;;;6.10;5.50;;;15.30;99.90;;;16.27;100.00;97920.47;5167042;28;20667;-69
2021/07/16 00:55:26;;;;;;;6.57;6.05;;;15.40;99.90;;;16.33;100.00;97924.97;5157960;28;20245;-68
2021/07/16 00:58:00;;;;;;;6.80;6.10;;;15.40;99.90;;;16.34;100.00;97924.13;5166031;28;20217;-69
2021/07/16 01:00:34;;;;;;;7.97;7.18;;;15.40;99.90;;;16.34;100.00;97926.72;5167475;28;20652;-69
2021/07/16 01:03:08;;;;;;;8.50;7.60;;;15.40;99.90;;;16.34;100.00;97925.03;5167010;28;20206;-69
2021/07/16 01:05:42;;;;;;;9.68;8.68;;;15.40;99.90;;;16.38;100.00;97926.03;5167088;28;20698;-69
2021/07/16 01:08:15;;;;;;;10.93;8.07;;;15.40;99.90;;;16.40;100.00;97925.25;5166588;28;20245;-69
2021/07/16 01:10:48;;;;;;;9.82;8.38;;;15.50;99.90;;;16.41;100.00;97929.56;5166103;28;20202;-69
2021/07/16 01:13:22;;;;;;;11.50;8.98;;;15.50;99.90;;;16.44;100.00;97927.09;5165877;28;20203;-69
2021/07/16 01:15:56;;;;;;;8.70;7.80;;;15.50;99.90;;;16.47;100.00;97926.34;5159758;28;20212;-68
2021/07/16 01:18:30;;;;;;;7.97;7.18;;;15.40;99.90;;;16.46;100.00;97924.59;5148657;28;20214;-69
2021/07/16 01:21:05;;;;;;;9.63;8.43;;;15.40;99.90;;;16.47;100.00;97928.03;5154849;28;20210;-68
2021/07/16 01:23:39;;;;;;;8.32;7.28;;;15.40;99.90;;;16.44;100.00;97927.09;5159067;28;20225;-69
2021/07/16 01:26:13;;;;;;;8.82;7.90;;;15.50;99.90;;;16.44;100.00;97926.22;5166762;28;20575;-68
2021/07/16 01:28:46;;;;;;;10.57;8.88;;;15.50;99.90;;;16.41;100.00;97921.84;5166280;28;20209;-69
2021/07/16 01:31:20;;;;;;;9.30;8.15;;;15.50;99.90;;;16.35;100.00;97915.59;5166517;28;20623;-68
2021/07/16 01:33:53;;;;;;;10.05;8.48;;;15.40;99.90;;;16.36;100.00;97922.50;5165850;28;20230;-69
2021/07/16 01:36:26;;;;;;;9.88;8.68;;;15.40;99.90;;;16.36;100.00;97923.38;5164570;28;20191;-68
2021/07/16 01:39:00;;;;;;;10.38;9.27;;;15.50;99.90;;;16.42;100.00;97922.72;5165594;28;20685;-69
2021/07/16 01:41:33;;;;;;;10.70;9.18;;;15.50;99.90;;;16.46;100.00;97927.16;5165742;28;20213;-69
2021/07/16 01:44:07;;;;;;;17.85;10.95;;;15.60;99.90;;;16.48;100.00;97925.50;5165696;28;20219;-68
2021/07/16 01:46:40;;;;;;;14.25;10.23;;;15.60;99.90;;;16.50;100.00;97929.03;5165537;28;20206;-68
2021/07/16 01:49:13;;;;;;;22.10;12.90;;;15.60;99.90;;;16.52;100.00;97940.28;5164320;28;20576;-69
2021/07/16 01:51:46;;;;;;;25.65;14.43;;;15.60;99.90;;;16.52;100.00;97940.28;5165915;28;20195;-68
2021/07/16 01:54:20;;;;;;;18.92;13.07;;;15.60;99.90;;;16.53;100.00;97931.69;5165552;28;20245;-68
2021/07/16 01:56:54;;;;;;;22.33;14.52;;;15.60;99.90;;;16.54;100.00;97930.91;5165484;28;20205;-68
2021/07/16 01:59:27;;;;;;;21.92;14.73;;;15.70;99.90;;;16.56;100.00;97931.81;5165671;28;20199;-69
2021/07/16 02:02:00;;;;;;;19.40;14.30;;;15.70;99.90;;;16.59;100.00;97936.19;5165925;28;20202;-69
2021/07/16 02:04:35;;;;;;;18.90;13.07;;;15.60;99.90;;;16.61;100.00;97934.56;5155781;28;20395;-69
2021/07/16 02:07:08;;;;;;;20.35;12.50;;;15.60;99.90;;;16.61;100.00;97940.59;5145878;28;20235;-68
2021/07/16 02:09:42;;;;;;;20.20;12.63;;;15.60;99.90;;;16.59;100.00;97931.91;5159922;28;20590;-69
2021/07/16 02:12:15;;;;;;;14.85;10.90;;;15.60;99.90;;;16.59;100.00;97937.06;5163006;28;20191;-69
2021/07/16 02:14:48;;;;;;;16.98;12.00;;;15.60;99.90;;;16.62;100.00;97932.00;5164459;28;20233;-69
2021/07/16 02:17:21;;;;;;;17.45;12.05;;;15.60;99.90;;;16.60;100.00;97937.97;5165635;28;20202;-69
2021/07/16 02:19:54;;;;;;;19.77;12.60;;;15.60;99.90;;;16.54;100.00;97935.16;5182255;23;20244;-67
2021/07/16 02:22:27;;;;;;;16.90;12.02;;;15.60;99.90;;;16.57;100.00;97932.72;5206457;28;20202;-67
2021/07/16 02:25:02;;;;;;;13.23;10.65;;;15.60;99.90;;;16.58;100.00;97935.34;5212211;28;20215;-68
2021/07/16 02:27:35;;;;;;;14.50;9.93;;;15.60;99.90;;;16.58;100.00;97940.50;5226329;28;20578;-68
2021/07/16 02:30:10;;;;;;;13.68;10.68;;;15.60;99.90;;;16.58;100.00;97935.34;5223163;28;20236;-68
2021/07/16 02:32:44;;;;;;;19.90;12.27;;;15.60;99.90;;;16.56;100.00;97931.81;5206034;28;20714;-69
2021/07/16 02:35:18;;;;;;;22.48;13.60;;;15.60;99.90;;;16.57;100.00;97933.59;5209842;28;20213;-69
2021/07/16 02:37:52;;;;;;;17.63;12.18;;;15.60;99.90;;;16.56;100.00;97929.22;5207534;28;20208;-69
2021/07/16 02:40:27;;;;;;;23.45;13.93;;;15.60;99.90;;;16.55;100.00;97929.19;5210961;28;20225;-70
2021/07/16 02:43:00;;;;;;;17.92;11.95;;;15.60;99.90;;;16.47;100.00;97936.66;5207268;28;20686;-68
2021/07/16 02:45:34;;;;;;;16.88;11.55;;;15.60;99.90;;;16.45;100.00;97927.97;5214966;28;20197;-68
2021/07/16 02:48:07;;;;;;;15.13;11.00;;;15.60;99.90;;;16.40;100.00;97939.88;5218126;28;20202;-68
2021/07/16 02:50:43;;;;;;;19.73;13.00;;;15.60;99.90;;;16.33;100.00;97943.91;5205848;28;20237;-68
2021/07/16 02:53:20;;;;;;;18.30;12.40;;;15.50;99.90;;;16.29;100.00;97944.63;5207019;28;20232;-68
2021/07/16 02:55:55;;;;;;;19.52;11.85;;;15.50;99.90;;;16.32;100.00;97943.88;5206916;28;20217;-69
2021/07/16 02:58:28;;;;;;;15.27;11.73;;;15.50;99.90;;;16.34;100.00;97939.63;5205699;28;20610;-68
2021/07/16 03:01:01;;;;;;;18.58;12.40;;;15.60;99.90;;;16.38;100.00;97941.50;5205851;28;20221;-69
2021/07/16 03:03:34;;;;;;;20.83;12.95;;;15.60;99.90;;;16.42;100.00;97945.94;5206217;28;20208;-68
2021/07/16 03:06:08;;;;;;;22.02;14.10;;;15.60;99.90;;;16.41;100.00;97941.59;5205744;28;20669;-68
2021/07/16 03:08:41;;;;;;;20.98;13.57;;;15.60;99.90;;;16.39;100.00;97943.25;5213635;28;20203;-69
2021/07/16 03:11:17;;;;;;;18.17;12.68;;;15.60;99.90;;;16.39;100.00;97935.50;5208470;28;20670;-69
2021/07/16 03:13:50;;;;;;;20.35;13.48;;;15.60;99.90;;;16.44;100.00;97942.59;5215050;28;20664;-69
2021/07/16 03:16:23;;;;;;;25.60;14.43;;;15.70;99.90;;;16.46;100.00;97950.41;5206562;28;20252;-69
2021/07/16 03:18:58;;;;;;;18.63;13.38;;;15.70;99.90;;;16.48;100.00;97948.72;5212944;28;20244;-69
2021/07/16 03:21:31;;;;;;;27.20;16.17;;;15.70;99.90;;;16.49;100.00;97955.66;5205550;28;20239;-69
2021/07/16 03:24:05;;;;;;;20.58;14.85;;;15.70;99.90;;;16.49;100.00;97958.25;5211191;28;20193;-69
2021/07/16 03:26:39;;;;;;;26.65;16.95;;;15.70;99.90;;;16.49;100.00;97960.81;5205614;28;20198;-69
2021/07/16 03:29:13;;;;;;;29.40;17.48;;;15.70;99.90;;;16.51;100.00;97959.19;5205320;28;20197;-68
2021/07/16 03:31:46;;;;;;;40.45;19.58;;;15.70;99.90;;;16.55;100.00;97966.19;5204829;28;20201;-68
2021/07/16 03:34:19;;;;;;;40.80;20.33;;;15.70;99.90;;;16.52;100.00;97958.34;5205427;28;20194;-69
2021/07/16 03:36:52;;;;;;;28.90;17.00;;;15.70;99.90;;;16.51;100.00;97964.34;5204921;28;20229;-68
2021/07/16 03:39:25;;;;;;;32.97;20.55;;;15.70;99.90;;;16.53;100.00;97959.22;5206327;28;20714;-70
2021/07/16 03:42:00;;;;;;;32.38;18.55;;;15.60;99.90;;;16.52;100.00;97963.50;5216393;28;20200;-68
2021/07/16 03:44:33;;;;;;;39.53;21.30;;;15.60;99.90;;;16.54;100.00;97959.28;5225804;28;20197;-68
2021/07/16 03:47:13;;;;;;;39.70;21.85;;;15.70;99.90;;;16.57;100.00;97955.94;5212999;28;20213;-68
2021/07/16 03:49:47;;;;;;;48.92;21.20;;;15.70;99.90;;;16.55;100.00;97960.16;5204866;28;20210;-69
2021/07/16 03:52:21;;;;;;;35.53;19.63;;;15.70;99.90;;;16.57;100.00;97966.25;5206076;28;20382;-68
2021/07/16 03:54:54;;;;;;;34.50;18.30;;;15.70;99.90;;;16.56;100.00;97967.94;5218723;28;20197;-68
2021/07/16 03:57:28;;;;;;;45.70;21.45;;;15.70;99.90;;;16.60;100.00;97966.38;5205109;28;20583;-68
2021/07/16 04:00:05;;;;;;;47.10;21.48;;;15.70;99.90;;;16.63;100.00;97966.47;5204862;28;20217;-69
2021/07/16 04:02:38;;;;;;;34.03;19.25;;;15.70;99.90;;;16.59;100.00;97967.16;5205331;28;20197;-69
2021/07/16 04:05:12;;;;;;;46.70;19.88;;;15.70;99.90;;;16.57;100.00;97964.56;5208192;28;20284;-70
2021/07/16 04:07:46;;;;;;;50.45;23.10;;;15.70;99.90;;;16.61;100.00;97971.56;5206689;28;20285;-68
2021/07/16 04:10:23;;;;;;;37.35;19.92;;;15.70;99.90;;;16.60;100.00;97964.66;5210090;28;20655;-69
2021/07/16 04:13:03;;;;;;;39.50;21.92;;;15.70;99.90;;;16.63;100.00;97969.06;5203003;28;20198;-68
2021/07/16 04:15:37;;;;;;;33.67;19.40;;;15.70;99.90;;;16.65;100.00;97982.88;5210952;28;20219;-68
2021/07/16 04:18:11;;;;;;;53.75;23.70;;;15.70;99.90;;;16.64;100.00;97979.41;5227057;28;20205;-68
2021/07/16 04:20:44;;;;;;;54.38;22.45;;;15.70;99.90;;;16.63;100.00;97982.81;5211330;28;20221;-68
2021/07/16 04:23:22;;;;;;;64.25;23.38;;;15.70;99.90;;;16.63;100.00;97985.41;5212271;28;20202;-68
2021/07/16 04:25:55;;;;;;;56.30;23.75;;;15.80;99.90;;;16.66;100.00;97982.06;5220470;28;20189;-70
2021/07/16 04:28:29;;;;;;;40.15;20.85;;;15.80;99.90;;;16.66;100.00;97980.34;5224965;28;20202;-69
2021/07/16 04:31:02;;;;;;;51.20;22.52;;;15.80;99.90;;;16.66;100.00;97985.50;5220885;28;20213;-68
2021/07/16 04:33:35;;;;;;;49.00;24.27;;;15.80;99.90;;;16.69;100.00;97982.16;5207919;28;20292;-68
2021/07/16 04:36:08;;;;;;;53.72;22.95;;;15.70;99.90;;;16.70;100.00;97988.19;5213720;28;20217;-68
2021/07/16 04:38:41;;;;;;;51.28;23.30;;;15.80;99.90;;;16.67;100.00;97995.00;5208330;28;20204;-69
2021/07/16 04:41:14;;;;;;;45.35;20.80;;;15.80;99.90;;;16.65;100.00;97990.59;5217115;28;20224;-68
2021/07/16 04:43:49;;;;;;;59.88;24.45;;;15.80;99.90;;;16.64;100.00;97997.47;5210095;28;20202;-69
2021/07/16 04:46:22;;;;;;;46.75;21.90;;;15.80;99.90;;;16.68;100.00;97990.72;5207385;28;20195;-70
2021/07/16 04:48:56;;;;;;;53.22;23.13;;;15.80;99.90;;;16.66;100.00;97990.69;5207715;28;20198;-68
2021/07/16 04:51:30;;;;;;;53.42;22.80;;;15.80;99.90;;;16.70;100.00;97986.50;5221701;28;20213;-69
2021/07/16 04:54:06;;;;;;;45.75;20.73;;;15.80;99.90;;;16.68;100.00;97993.28;5211327;28;20305;-68
2021/07/16 04:56:39;;;;;;;41.90;20.50;;;15.80;99.90;;;16.70;100.00;97990.78;5207613;28;20238;-68
2021/07/16 04:59:14;;;;;;;51.75;22.58;;;15.80;99.90;;;16.71;100.00;98002.84;5210414;28;20213;-68
2021/07/16 05:01:48;;;;;;;42.90;20.98;;;15.80;99.90;;;16.67;100.00;97997.59;5216986;28;20199;-68
2021/07/16 05:04:23;;;;;;;39.90;19.00;;;15.80;99.90;;;16.66;100.00;97997.53;5218573;28;20297;-68
2021/07/16 05:06:56;;;;;;;42.85;20.33;;;15.80;99.90;;;16.66;100.00;98003.59;5208604;28;20629;-68
2021/07/16 05:09:29;;;;;;;44.03;20.98;;;15.90;99.90;;;16.66;100.00;98011.31;5207923;28;20201;-68
2021/07/16 05:12:04;;;;;;;37.60;21.05;;;15.90;99.90;;;16.65;100.00;98007.00;5207520;28;20253;-68
2021/07/16 05:14:38;;;;;;;44.70;21.17;;;15.80;99.90;;;16.60;100.00;98016.28;5219688;28;20193;-68
2021/07/16 05:17:11;;;;;;;42.95;21.35;;;15.80;99.90;;;16.66;100.00;98010.44;5206071;28;20227;-67
2021/07/16 05:19:45;;;;;;;41.15;19.13;;;15.80;99.90;;;16.66;100.00;98015.63;5211591;28;20676;-67
2021/07/16 05:22:18;;;;;;;36.72;20.25;;;15.80;99.90;;;16.73;100.00;98017.56;5206518;28;20196;-67
2021/07/16 05:24:51;;;;;;;54.67;21.95;;;15.90;99.90;;;16.80;100.00;98014.44;5208115;28;20571;-68
2021/07/16 05:27:24;;;;;;;42.38;21.58;;;16.00;99.90;;;16.89;100.00;98016.47;5208107;28;20209;-68
2021/07/16 05:29:58;;;;;;;35.22;19.92;;;16.00;99.90;;;16.91;100.00;98019.06;5208829;28;20221;-68
2021/07/16 05:32:31;;;;;;;39.45;19.30;;;16.00;99.90;;;16.91;100.00;98017.38;5211667;28;20208;-69
2021/07/16 05:35:06;;;;;;;34.25;21.15;;;16.00;99.90;;;16.92;100.00;98016.56;5220811;28;20190;-68
2021/07/16 05:37:39;;;;;;;29.67;17.60;;;16.00;99.90;;;16.95;100.00;98019.25;5208448;28;20247;-63
2021/07/16 05:40:14;;;;;;;34.50;19.13;;;16.10;99.90;;;17.00;100.00;98022.00;5210132;28;20689;-68
2021/07/16 05:42:47;;;;;;;38.00;19.17;;;16.10;99.90;;;17.03;100.00;98016.94;5212552;28;20295;-68
2021/07/16 05:45:21;;;;;;;35.80;19.35;;;16.20;99.90;;;17.07;100.00;98024.81;5208731;28;20599;-68
2021/07/16 05:47:56;;;;;;;29.85;17.02;;;16.20;99.90;;;17.08;100.00;98021.44;5208959;28;20293;-68
2021/07/16 05:50:29;;;;;;;23.98;16.05;;;16.30;99.90;;;17.14;100.00;98025.94;5210045;28;20229;-68
2021/07/16 05:53:03;;;;;;;21.25;14.38;;;16.30;99.90;;;17.18;100.00;98038.09;5210570;28;20658;-68
2021/07/16 05:55:37;;;;;;;20.77;16.65;;;16.30;99.90;;;17.29;100.00;98030.72;5225751;28;20201;-68
2021/07/16 05:58:11;;;;;;;24.95;15.93;;;16.30;99.90;;;17.26;100.00;98038.38;5206918;28;20783;-68
2021/07/16 06:00:45;;;;;;;21.27;15.27;;;16.30;99.90;;;17.27;100.00;98040.13;5208475;28;20579;-68
2021/07/16 06:03:18;;;;;;;19.25;13.98;;;16.40;99.90;;;17.28;100.00;98031.53;5207377;28;20217;-68
2021/07/16 06:05:52;;;;;;;17.80;13.85;;;16.40;99.90;;;17.32;100.00;98036.00;5218180;28;20197;-68
2021/07/16 06:08:25;;;;;;;22.25;14.27;;;16.30;99.90;;;17.33;100.00;98042.91;5207907;28;20197;-68
2021/07/16 06:10:58;;;;;;;21.00;14.65;;;16.40;99.90;;;17.37;100.00;98044.78;5206975;28;20218;-68
2021/07/16 06:13:31;;;;;;;16.92;13.73;;;16.40;99.90;;;17.46;100.00;98049.38;5225496;28;20204;-68
2021/07/16 06:16:06;;;;;;;14.40;12.20;;;16.50;99.90;;;17.54;100.00;98042.72;5228230;28;20279;-68
2021/07/16 06:18:39;;;;;;;15.38;12.55;;;16.50;99.90;;;17.60;100.00;98042.94;5209183;28;20630;-68
2021/07/16 06:21:12;;;;;;;13.00;11.70;;;16.50;99.90;;;17.61;100.00;98049.00;5223102;28;20227;-68
2021/07/16 06:23:46;;;;;;;12.13;10.70;;;16.50;99.90;;;17.63;100.00;98055.09;5208555;28;20571;-68
2021/07/16 06:26:19;;;;;;;12.82;11.40;;;16.60;99.90;;;17.69;100.00;98052.72;5207309;28;20539;-69
2021/07/16 06:28:52;;;;;;;13.43;11.95;;;16.60;99.90;;;17.74;100.00;98056.28;5222807;28;20197;-68
2021/07/16 06:31:26;;;;;;;12.90;11.70;;;16.60;99.90;;;17.73;100.00;98059.72;5224005;28;20715;-69
2021/07/16 06:34:00;;;;;;;12.00;10.55;;;16.50;99.90;;;17.77;100.00;98056.41;5195646;28;20590;-69
2021/07/16 06:36:33;;;;;;;11.40;10.40;;;16.50;99.90;;;17.76;100.00;98057.22;5206499;28;20225;-68
2021/07/16 06:39:06;;;;;;;9.80;8.95;;;16.60;99.90;;;17.76;100.00;98054.66;5206710;28;20198;-69
2021/07/16 06:41:39;;;;;;;11.32;10.13;;;16.60;99.90;;;17.78;100.00;98063.38;5204396;28;20669;-66
2021/07/16 06:44:12;;;;;;;10.20;9.30;;;16.50;99.90;;;17.80;100.00;98066.91;5205159;28;20571;-68
2021/07/16 06:46:47;;;;;;;10.35;9.38;;;16.50;99.90;;;17.84;100.00;98073.91;5203909;28;20193;-68
2021/07/16 06:49:26;;;;;;;8.75;8.05;;;16.60;99.90;;;17.85;100.00;98075.66;5202545;28;20205;-68
2021/07/16 06:52:00;;;;;;;8.93;8.23;;;16.70;99.90;;;17.87;100.00;98074.00;5203621;28;20207;-68
2021/07/16 06:54:33;;;;;;;10.27;9.27;;;16.70;99.90;;;17.92;100.00;98077.63;5197776;28;20206;-69
2021/07/16 06:57:06;;;;;;;9.88;9.07;;;16.70;99.90;;;17.96;100.00;98071.69;5205681;28;20308;-68
2021/07/16 06:59:39;;;;;;;11.40;10.35;;;16.80;99.90;;;17.99;100.00;98074.38;5196110;28;20228;-68
2021/07/16 07:02:14;;;;;;;11.45;10.43;;;16.80;99.90;;;18.01;100.00;98077.91;5225223;28;20461;-68
2021/07/16 07:04:47;;;;;;;10.88;9.93;;;16.90;99.90;;;18.08;100.00;98080.66;5207273;28;20210;-67
2021/07/16 07:07:21;;;;;;;11.00;10.00;;;16.80;99.90;;;18.13;100.00;98092.03;5198569;28;20205;-68
2021/07/16 07:09:54;;;;;;;12.20;11.10;;;16.90;99.90;;;18.17;100.00;98089.63;5207690;28;20723;-68
2021/07/16 07:12:27;;;;;;;11.50;10.40;;;17.00;99.90;;;18.30;100.00;98093.44;5204910;28;20325;-68
2021/07/16 07:15:00;;;;;;;11.82;10.82;;;17.10;99.90;;;18.49;100.00;98089.72;5210355;28;20198;-68
2021/07/16 07:17:35;;;;;;;12.35;11.27;;;17.20;99.90;;;18.89;100.00;98099.53;5211924;28;20257;-68
2021/07/16 07:20:11;;;;;;;11.77;10.57;;;17.50;99.90;;;19.60;100.00;98088.41;5205992;28;20240;-67
2021/07/16 07:22:44;;;;;;;11.00;10.10;;;18.00;99.90;;;20.40;100.00;98087.72;5204697;28;20319;-67
2021/07/16 07:25:17;;;;;;;10.15;9.30;;;18.40;99.90;;;21.05;99.35;98080.44;5208991;28;20216;-67
2021/07/16 07:27:50;;;;;;;9.10;8.30;;;18.80;99.90;;;20.94;100.00;98081.97;5205600;28;20194;-68
2021/07/16 07:30:24;;;;;;;9.05;8.25;;;18.60;99.90;;;20.63;100.00;98086.56;5202892;28;20688;-68
2021/07/16 07:32:58;;;;;;;8.48;7.78;;;18.40;99.90;;;20.38;99.46;98090.31;5200342;28;20441;-68
2021/07/16 07:35:33;;;;;;;8.32;7.63;;;18.20;99.90;;;20.08;100.00;98100.88;5201871;28;20579;-69
2021/07/16 07:38:06;;;;;;;8.30;7.60;;;18.10;99.90;;;19.77;100.00;98100.16;5206513;28;20217;-68
2021/07/16 07:40:40;;;;;;;8.48;7.88;;;18.00;99.90;;;19.62;100.00;98104.03;5205118;28;20220;-67
2021/07/16 07:43:13;;;;;;;8.80;8.05;;;17.80;99.90;;;19.49;100.00;98108.03;5205069;28;20202;-68
2021/07/16 07:45:47;;;;;;;8.60;7.90;;;17.70;99.90;;;19.36;100.00;98106.81;5198479;28;20198;-68
2021/07/16 07:48:21;;;;;;;8.85;8.18;;;17.70;99.90;;;19.35;100.00;98100.78;5204845;28;20565;-67
2021/07/16 07:50:55;;;;;;;8.80;8.10;;;17.70;99.90;;;19.42;100.00;98099.22;5209849;28;20221;-67
2021/07/16 07:53:28;;;;;;;9.15;8.45;;;17.80;99.90;;;20.04;100.00;98099.06;5204375;28;20205;-67
2021/07/16 07:56:01;;;;;;;9.52;8.73;;;18.20;99.90;;;20.94;97.88;98102.75;5211612;28;20203;-68
2021/07/16 07:58:34;;;;;;;8.68;8.07;;;19.00;99.90;;;22.08;94.65;98110.00;5213399;28;20312;-68
2021/07/16 08:01:07;;;;;;;8.05;7.45;;;19.50;99.90;;;23.13;93.93;98105.41;5212243;28;20670;-66
2021/07/16 08:03:42;;;;;;;7.30;6.70;;;20.10;99.90;;;23.72;88.20;98109.50;5212191;28;20197;-67
2021/07/16 08:06:15;;;;;;;6.80;6.30;;;20.50;99.90;;;24.47;85.48;98108.34;5208703;28;20196;-66
2021/07/16 08:08:48;;;;;;;6.07;5.57;;;20.80;99.90;;;24.93;79.49;98107.72;5204948;28;20292;-67
2021/07/16 08:11:21;;;;;;;5.90;5.50;;;21.00;99.90;;;24.59;78.94;98109.28;5206685;28;20295;-67
2021/07/16 08:13:54;;;;;;;6.20;5.80;;;21.00;99.90;;;24.18;78.85;98105.53;5219988;28;20195;-68
2021/07/16 08:16:27;;;;;;;5.35;5.05;;;20.70;99.90;;;23.61;81.31;98106.78;5216422;28;20205;-67
2021/07/16 08:19:02;;;;;;;6.32;5.82;;;20.10;99.90;;;23.32;80.87;98107.38;5210303;28;20217;-66
2021/07/16 08:21:35;;;;;;;5.35;4.95;;;20.10;99.90;;;23.43;82.37;98112.66;5217723;23;20232;-61
2021/07/16 08:24:12;;;;;;;5.30;4.90;;;20.40;99.90;;;23.59;81.92;98106.75;5206625;28;20197;-61
2021/07/16 08:26:46;;;;;;;5.28;4.88;;;20.70;99.90;;;23.55;82.94;98107.59;5204472;28;20202;-62
2021/07/16 08:29:19;;;;;;;4.20;3.90;;;20.50;99.90;;;23.47;83.40;98111.00;5199625;28;20202;-62
2021/07/16 08:31:52;;;;;;;4.50;4.20;;;20.30;99.90;;;23.44;83.44;98111.81;5203674;28;20673;-61
2021/07/16 08:34:27;;;;;;;5.03;4.72;;;20.20;99.90;;;23.53;85.39;98114.53;5193740;28;20719;-61
2021/07/16 08:37:01;;;;;;;5.78;5.43;;;20.60;99.90;;;23.83;81.54;98111.31;5187630;28;20204;-61
2021/07/16 08:39:34;;;;;;;5.47;5.07;;;21.10;99.90;;;23.93;79.54;98119.25;5179041;28;20317;-62
2021/07/16 08:42:09;;;;;;;5.80;5.38;;;21.30;99.90;;;24.04;81.28;98118.47;5168881;28;20225;-62
2021/07/16 08:44:45;;;;;;;5.30;4.90;;;21.60;99.90;;;23.88;75.47;98126.19;5178965;28;20672;-62
2021/07/16 08:47:19;;;;;;;6.30;5.90;;;21.70;99.90;;;23.41;74.61;98118.72;5194278;28;20198;-62
2021/07/16 08:49:54;;;;;;;4.88;4.57;;;21.40;99.90;;;23.12;80.88;98121.88;5206305;28;20661;-62
2021/07/16 08:52:29;;;;;;;4.53;4.20;;;21.00;99.90;;;23.06;79.61;98124.44;5197919;28;20293;-62
2021/07/16 08:55:02;;;;;;;4.45;4.15;;;21.00;99.90;;;23.19;77.82;98128.06;5180279;28;20201;-62
2021/07/16 08:57:35;;;;;;;4.10;3.80;;;21.30;99.90;;;23.02;71.06;98126.13;5176572;28;20577;-61
2021/07/16 09:00:13;;;;;;;5.13;4.30;;;21.50;99.90;;;23.21;78.53;98116.81;5203823;28;20312;-61
2021/07/16 09:02:56;;;;;;;4.43;4.13;;;21.30;99.90;;;23.30;77.47;98118.63;5188838;28;20202;-62
2021/07/16 09:05:39;;;;;;;3.80;3.50;;;21.40;99.90;;;23.33;76.50;98109.09;5173203;28;20194;-62
2021/07/16 09:08:15;;;;;;;3.70;3.40;;;21.60;99.90;;;23.34;73.45;98113.44;5184854;28;20195;-62
2021/07/16 09:10:50;;;;;;;3.30;3.10;;;21.90;99.90;;;23.59;74.27;98122.41;5177247;28;20222;-61
2021/07/16 09:13:25;;;;;;;3.40;3.20;;;22.20;99.90;;;23.54;67.23;98116.25;5174051;28;20221;-61
2021/07/16 09:16:01;;;;;;;3.65;3.45;;;22.30;99.90;;;23.85;73.99;98116.56;5172887;28;20198;-62
2021/07/16 09:18:36;;;;;;;3.30;3.10;;;22.60;99.90;;;24.14;72.68;98114.19;5176091;28;20288;-62
2021/07/16 09:21:11;;;;;;;3.38;3.28;;;22.90;99.90;;;24.36;72.52;98115.22;5169559;28;20226;-61
2021/07/16 09:23:46;;;;;;;3.50;3.20;;;23.20;99.90;;;24.55;66.69;98104.91;5179311;28;20199;-61
2021/07/16 09:26:25;;;;;;;3.00;2.90;;;23.50;99.90;;;24.67;73.35;98113.69;5174989;28;20194;-62
2021/07/16 09:28:58;;;;;;;2.95;2.75;;;23.50;99.90;;;24.63;69.52;98109.28;5188513;28;20198;-62
2021/07/16 09:31:38;;;;;;;2.80;2.60;;;23.60;99.90;;;24.68;66.42;98111.94;5186098;28;20218;-61
2021/07/16 09:34:14;;;;;;;2.55;2.10;;;23.80;99.90;;;24.54;62.66;98113.63;5180891;28;20199;-60
2021/07/16 09:36:48;;;;;;;2.30;2.20;;;23.60;99.90;;;24.60;66.02;98109.28;5187230;28;20580;-64
2021/07/16 09:39:25;;;;;;;2.30;2.20;;;23.80;99.90;;;24.49;58.26;98116.19;5169319;28;20218;-62
2021/07/16 09:41:58;;;;;;;2.30;2.20;;;23.60;99.90;;;24.56;64.87;98112.75;5166701;28;20233;-63
2021/07/16 09:44:35;;;;;;;2.42;2.22;;;23.70;99.90;;;24.46;61.73;98110.94;5170024;28;20194;-61
2021/07/16 09:47:13;;;;;;;2.40;2.25;;;23.70;99.90;;;24.33;63.15;98112.59;5172614;28;20186;-60
2021/07/16 09:49:50;;;;;;;2.20;2.10;;;23.80;99.90;;;24.55;67.01;98103.16;5174975;28;20668;-61
2021/07/16 09:52:24;;;;;;;2.40;2.20;;;23.90;99.90;;;24.57;63.01;98104.03;5182850;28;20197;-61
2021/07/16 09:55:10;;;;;;;2.75;2.55;;;23.90;99.90;;;24.80;62.92;98098.06;5177471;28;20194;-61
2021/07/16 09:57:45;;;;;;;2.33;2.22;;;24.20;99.90;;;24.99;64.26;98094.66;5181500;28;20285;-61
2021/07/16 10:00:21;;;;;;;2.30;2.20;;;24.30;99.90;;;25.11;66.88;98097.28;5179669;28;20221;-61
2021/07/16 10:02:57;;;;;;;2.40;2.30;;;24.30;99.90;;;24.98;63.48;98099.84;5175010;28;20243;-61
2021/07/16 10:05:31;;;;;;;2.15;2.05;;;24.00;99.90;;;24.99;65.32;98092.03;5178357;28;20304;-62
2021/07/16 10:08:08;;;;;;;2.60;2.40;;;24.00;99.90;;;24.98;65.83;98100.75;5182883;28;20393;-60
2021/07/16 10:10:42;;;;;;;2.63;2.42;;;23.70;99.90;;;24.61;60.41;98095.38;5184038;28;20277;-61
2021/07/16 10:13:17;;;;;;;2.30;2.20;;;23.50;99.90;;;24.49;62.95;98106.63;5181461;28;20210;-61
2021/07/16 10:15:50;;;;;;;2.35;2.25;;;23.40;99.90;;;24.50;61.38;98102.28;5181723;28;20293;-61
2021/07/16 10:18:25;;;;;;;2.50;2.40;;;23.40;99.90;;;24.44;63.00;98100.50;5166408;28;20745;-61
2021/07/16 10:20:58;;;;;;;2.80;2.60;;;23.20;99.90;;;24.56;68.19;98107.53;5165948;28;20221;-62
2021/07/16 10:23:34;;;;;;;2.58;2.47;;;23.40;99.90;;;24.57;68.87;98109.28;5174433;28;20210;-62
2021/07/16 10:26:12;;;;;;;2.55;2.45;;;23.40;99.90;;;24.54;65.49;98111.88;5168779;28;20232;-62
2021/07/16 10:28:46;;;;;;;2.65;2.45;;;23.40;99.90;;;24.47;65.60;98108.34;5174899;28;20208;-61
2021/07/16 10:31:39;;;;;;;2.60;2.50;;;23.30;99.90;;;24.59;70.38;98107.53;5180233;28;20585;-62
2021/07/16 10:34:34;;;;;;;2.67;2.58;;;23.30;99.90;;;24.52;69.40;98110.97;5171652;28;20194;-62
2021/07/16 10:37:10;;;;;;;2.05;1.92;;;23.10;99.90;;;24.38;67.02;98105.66;5164882;28;20194;-61